Time;durP1;ratioP1;P1;durP2;ratioP2;P2;SDS_P1;SDS_P2;PMS_P1;PMS_P2;Temp;Humidity;BMP_temperature;BMP_pressure;BME280_temperature;BME280_humidity;BME280_pressure;Samples;Min_cycle;Max_cycle;Signal;HPM_P1;HPM_P2
2021/10/28 00:13:25;;;;;;;;;;;12.00;99.90;;;;;;5013283;28;19920;-77
2021/10/28 00:15:57;;;;;;;;;;;12.00;99.90;;;;;;4997303;28;19917;-77
2021/10/28 00:18:38;;;;;;;;;;;12.00;99.90;;;;;;5015567;28;20390;-75
2021/10/28 00:21:04;;;;;;;;;;;12.00;99.90;;;;;;4996851;28;19920;-77
2021/10/28 00:23:31;;;;;;;;;;;12.00;99.90;;;;;;4995158;28;19928;-77
2021/10/28 00:25:57;;;;;;;;;;;11.90;99.90;;;;;;5013703;28;20404;-75
2021/10/28 00:28:22;;;;;;;;;;;12.00;99.90;;;;;;4992715;28;19921;-77
2021/10/28 00:30:48;;;;;;;;;;;12.00;99.90;;;;;;5014198;28;19913;-78
2021/10/28 00:33:13;;;;;;;;;;;12.00;99.90;;;;;;5014828;28;19917;-77
2021/10/28 00:35:39;;;;;;;;;;;12.00;99.90;;;;;;5015377;28;20441;-77
2021/10/28 00:38:05;;;;;;;;;;;12.00;99.90;;;;;;4997621;28;20012;-77
2021/10/28 00:40:30;;;;;;;;;;;11.90;99.90;;;;;;5013718;28;20436;-77
2021/10/28 00:42:56;;;;;;;;;;;12.00;99.90;;;;;;4996384;28;19921;-77
2021/10/28 00:45:27;;;;;;;;;;;11.90;99.90;;;;;;5014183;28;19921;-78
2021/10/28 00:47:52;;;;;;;;;;;11.90;99.90;;;;;;5014667;28;19925;-78
2021/10/28 00:50:18;;;;;;;;;;;11.90;99.90;;;;;;5012228;28;19971;-77
2021/10/28 00:52:44;;;;;;;;;;;11.90;99.90;;;;;;4993416;28;19971;-79
2021/10/28 00:55:09;;;;;;;;;;;11.90;99.90;;;;;;5009446;28;20022;-78
2021/10/28 00:57:35;;;;;;;;;;;11.90;99.90;;;;;;4990082;28;20407;-78
2021/10/28 01:00:04;;;;;;;;;;;12.00;99.90;;;;;;4992331;28;19914;-80
2021/10/28 01:02:29;;;;;;;;;;;11.90;99.90;;;;;;5013343;28;19915;-79
2021/10/28 01:04:55;;;;;;;;;;;11.90;99.90;;;;;;4992530;28;19921;-76
2021/10/28 01:07:21;;;;;;;;;;;11.90;99.90;;;;;;4993532;28;20009;-77
2021/10/28 01:09:47;;;;;;;;;;;11.90;99.90;;;;;;4995384;28;19920;-77
2021/10/28 01:12:12;;;;;;;;;;;11.90;99.90;;;;;;4997045;28;19919;-77
2021/10/28 01:14:44;;;;;;;;;;;11.80;99.90;;;;;;5013701;28;20003;-76
2021/10/28 01:17:10;;;;;;;;;;;11.80;99.90;;;;;;4996618;28;19913;-76
2021/10/28 01:19:37;;;;;;;;;;;11.70;99.90;;;;;;4993890;28;20404;-78
2021/10/28 01:22:03;;;;;;;;;;;11.80;99.90;;;;;;5014116;28;19914;-77
2021/10/28 01:24:28;;;;;;;;;;;11.80;99.90;;;;;;4996380;28;19914;-78
2021/10/28 01:27:00;;;;;;;;;;;11.70;99.90;;;;;;4996578;28;19956;-79
2021/10/28 01:29:27;;;;;;;;;;;11.70;99.90;;;;;;5014542;28;19913;-79
2021/10/28 01:31:53;;;;;;;;;;;11.70;99.90;;;;;;5013373;28;19917;-78
2021/10/28 01:34:19;;;;;;;;;;;11.80;99.90;;;;;;5013520;28;19984;-77
2021/10/28 01:36:46;;;;;;;;;;;11.70;99.90;;;;;;4995903;28;19956;-77
2021/10/28 01:39:15;;;;;;;;;;;11.70;99.90;;;;;;5013694;28;19921;-78
2021/10/28 01:41:40;;;;;;;;;;;11.70;99.90;;;;;;5011531;28;19920;-77
2021/10/28 01:44:06;;;;;;;;;;;11.70;99.90;;;;;;4994061;28;20285;-77
2021/10/28 01:46:31;;;;;;;;;;;11.70;99.90;;;;;;5012729;28;19920;-78
2021/10/28 01:48:57;;;;;;;;;;;11.60;99.90;;;;;;4995570;28;19983;-78
2021/10/28 01:51:24;;;;;;;;;;;11.60;99.90;;;;;;5013737;28;20000;-78
2021/10/28 01:53:50;;;;;;;;;;;11.60;99.90;;;;;;5012824;28;19913;-78
2021/10/28 01:56:15;;;;;;;;;;;11.60;99.90;;;;;;5013545;28;19917;-78
2021/10/28 01:58:41;;;;;;;;;;;11.60;99.90;;;;;;4995673;28;20374;-79
2021/10/28 02:01:07;;;;;;;;;;;11.60;99.90;;;;;;4994969;28;19964;-78
2021/10/28 02:03:33;;;;;;;;;;;11.50;99.90;;;;;;5013500;28;19979;-78
2021/10/28 02:05:58;;;;;;;;;;;11.50;99.90;;;;;;5013214;28;19925;-78
2021/10/28 02:08:25;;;;;;;;;;;11.50;99.90;;;;;;4995094;28;19914;-78
2021/10/28 02:10:51;;;;;;;;;;;11.50;99.90;;;;;;4995549;28;20346;-78
2021/10/28 02:13:16;;;;;;;;;;;11.50;99.90;;;;;;5012964;28;19956;-78
2021/10/28 02:15:42;;;;;;;;;;;11.50;99.90;;;;;;4995513;28;19913;-78
2021/10/28 02:18:08;;;;;;;;;;;11.50;99.90;;;;;;4995829;28;20020;-78
2021/10/28 02:20:33;;;;;;;;;;;11.50;99.90;;;;;;4995252;28;20008;-78
2021/10/28 02:22:59;;;;;;;;;;;11.50;99.90;;;;;;5013448;28;19921;-78
2021/10/28 02:25:24;;;;;;;;;;;11.50;99.90;;;;;;4995326;28;19913;-78
2021/10/28 02:27:50;;;;;;;;;;;11.40;99.90;;;;;;4991992;28;19917;-77
2021/10/28 02:30:16;;;;;;;;;;;11.40;99.90;;;;;;4989894;28;19914;-77
2021/10/28 02:32:42;;;;;;;;;;;11.40;99.90;;;;;;5013278;28;19916;-77
2021/10/28 02:35:07;;;;;;;;;;;11.40;99.90;;;;;;5012758;28;20374;-77
2021/10/28 02:37:33;;;;;;;;;;;11.40;99.90;;;;;;5012828;28;19960;-77
2021/10/28 02:39:58;;;;;;;;;;;11.40;99.90;;;;;;4995248;28;19920;-77
2021/10/28 02:42:24;;;;;;;;;;;11.50;99.90;;;;;;5012836;28;20012;-78
2021/10/28 02:44:49;;;;;;;;;;;11.50;99.90;;;;;;4995345;28;19914;-78
2021/10/28 02:47:15;;;;;;;;;;;11.40;99.90;;;;;;4994959;28;19925;-78
2021/10/28 02:49:41;;;;;;;;;;;11.40;99.90;;;;;;5012920;28;20378;-78
2021/10/28 02:52:06;;;;;;;;;;;11.40;99.90;;;;;;5012991;28;19956;-78
2021/10/28 02:54:34;;;;;;;;;;;11.40;99.90;;;;;;4994644;28;19913;-78
2021/10/28 02:57:00;;;;;;;;;;;11.40;99.90;;;;;;4995265;28;19920;-78
2021/10/28 02:59:25;;;;;;;;;;;11.30;99.90;;;;;;4995228;28;20321;-78
2021/10/28 03:01:52;;;;;;;;;;;11.30;99.90;;;;;;4994123;28;19959;-78
2021/10/28 03:04:19;;;;;;;;;;;11.30;99.90;;;;;;4995116;28;20328;-78
2021/10/28 03:06:44;;;;;;;;;;;11.30;99.90;;;;;;4997424;28;20015;-77
2021/10/28 03:09:11;;;;;;;;;;;11.30;99.90;;;;;;4998794;28;20044;-77
2021/10/28 03:11:38;;;;;;;;;;;11.30;99.90;;;;;;4998831;28;19913;-78
2021/10/28 03:14:03;;;;;;;;;;;11.30;99.90;;;;;;5016255;28;19914;-78
2021/10/28 03:27:01;;;;;;;;;;;11.20;99.90;;;;;;4997224;28;20013;-79
2021/10/28 03:29:26;;;;;;;;;;;11.10;99.90;;;;;;5016405;28;19913;-76
2021/10/28 03:31:52;;;;;;;;;;;11.10;99.90;;;;;;5015859;28;19917;-78
2021/10/28 03:34:18;;;;;;;;;;;11.00;99.90;;;;;;4998647;28;19909;-79
2021/10/28 03:36:58;;;;;;;;;;;11.00;99.90;;;;;;5011790;28;19924;-78
2021/10/28 03:39:54;;;;;;;;;;;11.00;99.90;;;;;;5015892;28;20384;-78
2021/10/28 03:59:01;;;;;;;;;;;10.80;99.90;;;;;;5015993;28;19921;-78
2021/10/28 04:28:52;;;;;;;;;;;10.70;99.90;;;;;;5014777;28;20405;-78
2021/10/28 04:30:10;;;;;;;;;;;10.60;99.90;;;;;;5015215;28;19980;-78
2021/10/28 04:32:35;;;;;;;;;;;10.60;99.90;;;;;;4997173;28;19913;-79
2021/10/28 04:35:01;;;;;;;;;;;10.60;99.90;;;;;;5014858;28;19920;-79
2021/10/28 04:37:27;;;;;;;;;;;10.50;99.90;;;;;;4997723;28;19987;-79
2021/10/28 04:39:54;;;;;;;;;;;10.60;99.90;;;;;;5014449;28;19979;-79
2021/10/28 04:42:20;;;;;;;;;;;10.60;99.90;;;;;;4997112;28;19909;-79
2021/10/28 04:44:45;;;;;;;;;;;10.60;99.90;;;;;;5014813;28;19963;-78
2021/10/28 04:47:11;;;;;;;;;;;10.60;99.90;;;;;;5014799;28;19924;-78
2021/10/28 04:49:36;;;;;;;;;;;10.60;99.90;;;;;;5014788;28;20326;-79
2021/10/28 04:52:03;;;;;;;;;;;10.50;99.90;;;;;;4996434;28;19921;-78
2021/10/28 04:54:28;;;;;;;;;;;10.40;99.90;;;;;;5014896;28;19909;-79
2021/10/28 04:56:54;;;;;;;;;;;10.30;99.90;;;;;;4996890;28;20389;-78
2021/10/28 04:59:19;;;;;;;;;;;10.20;99.90;;;;;;4996848;28;19917;-79
2021/10/28 05:01:45;;;;;;;;;;;10.20;99.90;;;;;;4996036;28;19914;-79
2021/10/28 05:04:10;;;;;;;;;;;10.20;99.90;;;;;;4997036;28;19917;-79
2021/10/28 05:06:36;;;;;;;;;;;10.20;99.90;;;;;;5014371;28;19914;-79
2021/10/28 05:09:04;;;;;;;;;;;10.20;99.90;;;;;;5014416;28;19913;-78
2021/10/28 05:11:29;;;;;;;;;;;10.20;99.90;;;;;;5013350;28;19913;-78
2021/10/28 05:13:55;;;;;;;;;;;10.20;99.90;;;;;;5014007;28;20329;-78
2021/10/28 05:16:21;;;;;;;;;;;10.10;99.90;;;;;;4996643;28;19913;-78
2021/10/28 05:18:47;;;;;;;;;;;10.10;99.90;;;;;;4996513;28;20012;-78
2021/10/28 05:21:14;;;;;;;;;;;10.10;99.90;;;;;;4996293;28;20281;-78
2021/10/28 05:23:40;;;;;;;;;;;10.10;99.90;;;;;;4995872;28;19914;-78
2021/10/28 05:26:06;;;;;;;;;;;10.10;99.90;;;;;;5014102;28;19913;-78
2021/10/28 05:28:32;;;;;;;;;;;10.10;99.90;;;;;;4994400;28;19967;-77
2021/10/28 05:30:57;;;;;;;;;;;10.00;99.90;;;;;;4996209;28;19913;-77
2021/10/28 05:33:23;;;;;;;;;;;9.90;99.90;;;;;;5014264;28;19972;-77
2021/10/28 05:35:48;;;;;;;;;;;9.90;99.90;;;;;;5013380;28;19976;-78
2021/10/28 05:38:14;;;;;;;;;;;10.00;99.90;;;;;;5013892;28;19914;-77
2021/10/28 05:40:40;;;;;;;;;;;9.90;99.90;;;;;;5013446;28;19914;-78
2021/10/28 05:43:08;;;;;;;;;;;10.00;99.90;;;;;;4996436;28;19910;-77
2021/10/28 05:45:34;;;;;;;;;;;10.00;99.90;;;;;;4995546;28;19913;-78
2021/10/28 05:47:59;;;;;;;;;;;10.00;99.90;;;;;;5013490;28;20393;-78
2021/10/28 05:50:25;;;;;;;;;;;10.00;99.90;;;;;;4995249;28;19921;-78
2021/10/28 05:52:53;;;;;;;;;;;10.00;99.90;;;;;;5013352;28;20386;-77
2021/10/28 05:55:22;;;;;;;;;;;10.10;99.90;;;;;;5015682;28;19917;-77
2021/10/28 05:57:48;;;;;;;;;;;10.10;99.90;;;;;;4996839;28;19922;-78
2021/10/28 06:00:14;;;;;;;;;;;10.00;99.90;;;;;;4995703;28;20051;-77
2021/10/28 06:02:41;;;;;;;;;;;10.00;99.90;;;;;;5013099;28;19963;-78
2021/10/28 06:05:07;;;;;;;;;;;9.90;99.90;;;;;;4996195;28;19932;-78
2021/10/28 06:07:33;;;;;;;;;;;9.90;99.90;;;;;;4995180;28;19925;-78
2021/10/28 06:09:59;;;;;;;;;;;10.00;99.90;;;;;;5013204;28;20386;-79
2021/10/28 06:12:27;;;;;;;;;;;10.00;99.90;;;;;;5013291;28;20294;-78
2021/10/28 06:14:55;;;;;;;;;;;10.00;99.90;;;;;;5012507;28;19924;-79
2021/10/28 06:17:29;;;;;;;;;;;10.10;99.90;;;;;;5013411;28;19922;-79
2021/10/28 06:19:54;;;;;;;;;;;10.10;99.90;;;;;;4995285;28;20341;-78
2021/10/28 06:22:20;;;;;;;;;;;10.10;99.90;;;;;;4995326;28;19914;-78
2021/10/28 06:24:45;;;;;;;;;;;10.10;99.90;;;;;;5013451;28;19941;-78
2021/10/28 06:27:11;;;;;;;;;;;10.10;99.90;;;;;;5014679;28;19925;-78
2021/10/28 06:29:36;;;;;;;;;;;10.10;99.90;;;;;;5015346;28;20305;-79
2021/10/28 06:32:02;;;;;;;;;;;10.00;99.90;;;;;;5015383;28;19924;-80
2021/10/28 06:34:33;;;;;;;;;;;10.10;99.90;;;;;;4997781;28;19924;-79
2021/10/28 06:37:03;;;;;;;;;;;10.20;99.90;;;;;;4998391;28;19921;-78
2021/10/28 06:39:29;;;;;;;;;;;10.20;99.90;;;;;;5015986;28;19976;-79
2021/10/28 06:41:55;;;;;;;;;;;10.20;99.90;;;;;;5020366;28;19913;-79
2021/10/28 06:44:20;;;;;;;;;;;10.20;99.90;;;;;;5020560;28;19920;-79
2021/10/28 06:46:46;;;;;;;;;;;10.20;99.90;;;;;;5000336;28;19917;-79
2021/10/28 06:49:11;;;;;;;;;;;10.20;99.90;;;;;;5002396;28;19967;-80
2021/10/28 06:51:40;;;;;;;;;;;10.30;99.90;;;;;;5023440;28;20000;-82
2021/10/28 06:54:22;;;;;;;;;;;10.30;99.90;;;;;;5006985;28;19936;-80
2021/10/28 06:57:16;;;;;;;;;;;10.30;99.90;;;;;;5004741;28;19921;-82
2021/10/28 07:02:44;;;;;;;;;;;10.40;99.90;;;;;;4983739;28;19936;-80
2021/10/28 07:05:10;;;;;;;;;;;10.40;99.90;;;;;;5005383;28;19917;-82
2021/10/28 07:07:36;;;;;;;;;;;10.40;99.90;;;;;;5022561;28;19917;-81
2021/10/28 07:10:18;;;;;;;;;;;10.40;99.90;;;;;;5006487;28;19913;-81
2021/10/28 07:15:35;;;;;;;;;;;10.50;99.90;;;;;;5005753;28;19914;-80
2021/10/28 07:20:35;;;;;;;;;;;10.50;99.90;;;;;;5025121;28;19941;-81
2021/10/28 07:26:02;;;;;;;;;;;10.60;99.90;;;;;;5038045;28;19952;-81
2021/10/28 08:14:33;;;;;;;;;;;11.90;99.90;;;;;;5022281;28;20040;-79
2021/10/28 08:22:05;;;;;;;;;;;12.10;99.90;;;;;;5021153;28;19913;-80
2021/10/28 08:29:59;;;;;;;;;;;12.30;99.90;;;;;;5017417;28;19920;-81
2021/10/28 08:32:25;;;;;;;;;;;12.30;99.90;;;;;;5004445;28;19985;-82
2021/10/28 08:34:52;;;;;;;;;;;12.30;99.90;;;;;;5003515;28;20130;-79
2021/10/28 08:37:19;;;;;;;;;;;12.30;99.90;;;;;;5000771;28;19983;-78
2021/10/28 08:39:46;;;;;;;;;;;12.30;99.90;;;;;;5017840;28;19913;-80
2021/10/28 08:42:12;;;;;;;;;;;12.40;99.90;;;;;;5016988;28;19914;-82
2021/10/28 08:44:44;;;;;;;;;;;12.50;99.90;;;;;;5017182;28;19917;-79
2021/10/28 08:47:13;;;;;;;;;;;12.50;99.90;;;;;;5016517;28;19921;-79
2021/10/28 08:49:44;;;;;;;;;;;12.50;99.90;;;;;;5016375;28;19920;-80
2021/10/28 08:52:32;;;;;;;;;;;12.50;99.90;;;;;;5007386;28;19914;-81
2021/10/28 08:55:13;;;;;;;;;;;12.60;99.90;;;;;;5016619;28;20374;-80
2021/10/28 09:26:52;;;;;;;;;;;13.60;99.90;;;;;;5099429;27;20369;-82
2021/10/28 09:32:29;;;;;;;;;;;13.60;99.90;;;;;;5092235;28;19913;-83
2021/10/28 09:35:08;;;;;;;;;;;13.70;99.90;;;;;;5087458;28;20073;-81
2021/10/28 09:51:16;;;;;;;;;;;14.20;99.90;;;;;;5063391;28;20357;-83
2021/10/28 09:59:23;;;;;;;;;;;14.30;99.90;;;;;;5066824;28;19919;-82
2021/10/28 10:01:49;;;;;;;;;;;14.30;99.90;;;;;;5069777;28;20305;-81
2021/10/28 10:04:15;;;;;;;;;;;14.40;99.90;;;;;;5064305;28;19924;-82
2021/10/28 10:06:43;;;;;;;;;;;14.40;99.90;;;;;;5070513;28;19913;-82
2021/10/28 10:09:09;;;;;;;;;;;14.50;99.90;;;;;;5069684;28;19913;-82
2021/10/28 10:11:35;;;;;;;;;;;14.70;99.90;;;;;;5056086;28;19920;-83
2021/10/28 10:14:02;;;;;;;;;;;14.80;99.90;;;;;;5070191;28;19982;-82
2021/10/28 10:16:29;;;;;;;;;;;14.90;99.90;;;;;;5071160;28;19912;-82
2021/10/28 10:18:55;;;;;;;;;;;15.00;99.90;;;;;;5069487;28;20009;-82
2021/10/28 10:21:30;;;;;;;;;;;15.00;99.90;;;;;;5071149;28;19952;-82
2021/10/28 10:24:41;;;;;;;;;;;15.00;99.90;;;;;;5066642;28;19916;-82
2021/10/28 10:30:05;;;;;;;;;;;15.10;99.90;;;;;;5065570;28;19916;-82
2021/10/28 11:21:33;;;;;;;;;;;16.00;99.90;;;;;;5046250;28;20005;-79
2021/10/28 11:25:35;;;;;;;;;;;16.10;99.90;;;;;;5048385;28;19921;-79
2021/10/28 12:17:22;;;;;;;;;;;17.10;99.90;;;;;;5046316;28;20007;-79
2021/10/28 12:44:34;;;;;;;;;;;17.60;99.90;;;;;;5045359;28;20388;-79
2021/10/28 13:06:33;;;;;;;;;;;17.50;99.90;;;;;;5056339;28;19948;-81
2021/10/28 14:20:01;;;;;;;;;;;17.50;99.90;;;;;;5054446;28;19945;-83
2021/10/28 14:28:07;;;;;;;;;;;17.70;99.90;;;;;;5058144;28;19920;-83
2021/10/28 15:27:38;;;;;;;;;;;17.80;99.90;;;;;;5054561;28;19959;-84
2021/10/28 15:30:52;;;;;;;;;;;17.40;99.90;;;;;;5048444;28;19917;-80
2021/10/28 15:36:17;;;;;;;;;;;17.30;99.90;;;;;;5046902;28;19931;-81
2021/10/28 15:38:50;;;;;;;;;;;17.30;99.90;;;;;;5063999;28;20058;-81
2021/10/28 15:57:42;;;;;;;;;;;16.40;99.90;;;;;;5049892;28;19920;-83
2021/10/28 16:22:00;;;;;;;;;;;15.70;99.90;;;;;;5046351;28;19975;-83
2021/10/28 16:24:35;;;;;;;;;;;15.60;99.90;;;;;;5053442;28;20289;-84
2021/10/28 16:27:03;;;;;;;;;;;15.60;99.90;;;;;;5058063;28;19952;-82
2021/10/28 16:29:29;;;;;;;;;;;15.50;99.90;;;;;;5055441;28;20002;-82
2021/10/28 16:31:56;;;;;;;;;;;15.50;99.90;;;;;;5051350;28;20443;-83
2021/10/28 16:34:34;;;;;;;;;;;15.50;99.90;;;;;;5051487;28;19912;-83
2021/10/28 16:37:03;;;;;;;;;;;15.40;99.90;;;;;;5052455;28;19913;-82
2021/10/28 16:39:28;;;;;;;;;;;15.30;99.90;;;;;;5050590;28;20011;-82
2021/10/28 16:41:55;;;;;;;;;;;15.20;99.90;;;;;;5051099;28;20376;-82
2021/10/28 16:44:21;;;;;;;;;;;15.10;99.90;;;;;;5050366;28;19955;-79
2021/10/28 16:46:47;;;;;;;;;;;15.10;99.90;;;;;;5048783;28;19952;-81
2021/10/28 16:49:13;;;;;;;;;;;15.20;99.90;;;;;;5050271;28;20301;-81
2021/10/28 16:51:39;;;;;;;;;;;15.10;99.90;;;;;;5059987;28;19963;-79
2021/10/28 16:54:05;;;;;;;;;;;15.00;99.90;;;;;;5047948;28;19935;-82
2021/10/28 16:56:31;;;;;;;;;;;14.90;99.90;;;;;;5048511;28;19913;-79
2021/10/28 16:58:57;;;;;;;;;;;14.90;99.90;;;;;;5048821;28;19920;-80
2021/10/28 17:01:23;;;;;;;;;;;14.80;99.90;;;;;;5049971;28;19920;-79
2021/10/28 17:03:49;;;;;;;;;;;14.70;99.90;;;;;;5049554;28;19920;-81
2021/10/28 17:06:16;;;;;;;;;;;14.70;99.90;;;;;;5048717;28;19916;-79
2021/10/28 17:08:44;;;;;;;;;;;14.70;99.90;;;;;;5048404;28;19913;-80
2021/10/28 17:11:11;;;;;;;;;;;14.60;99.90;;;;;;5048260;28;19916;-80
2021/10/28 17:13:37;;;;;;;;;;;14.60;99.90;;;;;;5047666;28;19920;-81
2021/10/28 17:16:03;;;;;;;;;;;14.60;99.90;;;;;;5050320;28;20051;-81
2021/10/28 17:18:28;;;;;;;;;;;14.50;99.90;;;;;;5061810;28;20059;-80
2021/10/28 17:20:57;;;;;;;;;;;14.60;99.90;;;;;;5053329;28;19912;-81
2021/10/28 17:23:31;;;;;;;;;;;14.50;99.90;;;;;;5047334;28;19921;-81
2021/10/28 17:25:59;;;;;;;;;;;14.50;99.90;;;;;;5045458;28;19921;-82
2021/10/28 17:28:25;;;;;;;;;;;14.40;99.90;;;;;;5047681;28;19921;-81
2021/10/28 17:30:51;;;;;;;;;;;14.40;99.90;;;;;;5055930;28;19912;-81
2021/10/28 17:33:18;;;;;;;;;;;14.40;99.90;;;;;;5051952;28;19913;-81
2021/10/28 17:35:43;;;;;;;;;;;14.40;99.90;;;;;;5055698;28;20003;-81
2021/10/28 17:38:09;;;;;;;;;;;14.40;99.90;;;;;;5069038;28;19959;-81
2021/10/28 17:40:34;;;;;;;;;;;14.30;99.90;;;;;;5059215;28;19959;-80
2021/10/28 17:43:00;;;;;;;;;;;14.40;99.90;;;;;;5054292;28;19928;-81
2021/10/28 17:45:28;;;;;;;;;;;14.30;99.90;;;;;;5053065;28;20363;-81
2021/10/28 17:47:54;;;;;;;;;;;14.30;99.90;;;;;;5037534;28;19919;-80
2021/10/28 17:50:21;;;;;;;;;;;14.30;99.90;;;;;;5052955;28;20382;-81
2021/10/28 17:52:46;;;;;;;;;;;14.20;99.90;;;;;;5069468;28;19917;-80
2021/10/28 17:55:12;;;;;;;;;;;14.20;99.90;;;;;;5064460;28;20140;-81
2021/10/28 17:57:37;;;;;;;;;;;14.20;99.90;;;;;;5058837;28;20396;-81
2021/10/28 18:00:04;;;;;;;;;;;14.20;99.90;;;;;;5060101;28;20065;-81
2021/10/28 18:02:30;;;;;;;;;;;14.20;99.90;;;;;;5060523;28;19928;-80
2021/10/28 18:04:55;;;;;;;;;;;14.20;99.90;;;;;;5071944;28;19939;-81
2021/10/28 18:07:21;;;;;;;;;;;14.10;99.90;;;;;;5063074;28;20297;-81
2021/10/28 18:09:47;;;;;;;;;;;14.20;99.90;;;;;;5055832;28;19917;-81
2021/10/28 18:12:12;;;;;;;;;;;14.10;99.90;;;;;;5054604;28;20042;-82
2021/10/28 18:14:38;;;;;;;;;;;14.10;99.90;;;;;;5061763;28;19919;-83
2021/10/28 18:17:03;;;;;;;;;;;14.10;99.90;;;;;;5054472;28;19912;-82
2021/10/28 18:19:29;;;;;;;;;;;14.00;99.90;;;;;;5051854;28;19972;-82
2021/10/28 18:21:55;;;;;;;;;;;14.00;99.90;;;;;;5050220;28;19917;-82
2021/10/28 18:24:22;;;;;;;;;;;14.10;99.90;;;;;;5052359;28;19917;-81
2021/10/28 18:26:48;;;;;;;;;;;14.00;99.90;;;;;;5049612;28;20004;-81
2021/10/28 18:29:14;;;;;;;;;;;14.00;99.90;;;;;;5052365;28;19947;-81
2021/10/28 18:31:40;;;;;;;;;;;13.90;99.90;;;;;;5067512;28;19936;-81
2021/10/28 18:34:07;;;;;;;;;;;14.00;99.90;;;;;;5055018;28;19996;-81
2021/10/28 18:36:33;;;;;;;;;;;14.00;99.90;;;;;;5043474;28;19920;-81
2021/10/28 18:39:00;;;;;;;;;;;14.00;99.90;;;;;;5052530;28;19940;-81
2021/10/28 18:41:26;;;;;;;;;;;14.00;99.90;;;;;;5055826;28;19913;-81
2021/10/28 18:43:52;;;;;;;;;;;14.00;99.90;;;;;;5052028;28;20374;-83
2021/10/28 18:46:21;;;;;;;;;;;14.00;99.90;;;;;;5055896;28;19917;-82
2021/10/28 18:48:54;;;;;;;;;;;14.10;99.90;;;;;;5047927;28;19920;-82
2021/10/28 18:51:19;;;;;;;;;;;14.10;99.90;;;;;;5036684;28;20297;-82
2021/10/28 18:53:46;;;;;;;;;;;14.10;99.90;;;;;;5064284;28;19913;-82
2021/10/28 18:56:13;;;;;;;;;;;14.10;99.90;;;;;;5052852;28;19944;-82
2021/10/28 18:58:39;;;;;;;;;;;14.10;99.90;;;;;;5052388;28;19919;-81
2021/10/28 19:01:05;;;;;;;;;;;14.10;99.90;;;;;;5053421;28;19913;-82
2021/10/28 19:03:31;;;;;;;;;;;14.10;99.90;;;;;;5055259;28;19920;-82
2021/10/28 19:05:57;;;;;;;;;;;14.00;99.90;;;;;;5055053;28;19916;-82
2021/10/28 19:08:23;;;;;;;;;;;14.10;99.90;;;;;;5054779;28;19976;-83
2021/10/28 19:10:49;;;;;;;;;;;14.00;99.90;;;;;;5055916;28;20003;-82
2021/10/28 19:13:14;;;;;;;;;;;14.00;99.90;;;;;;5056108;28;20333;-82
2021/10/28 19:15:40;;;;;;;;;;;14.00;99.90;;;;;;5050611;28;19917;-81
2021/10/28 19:18:06;;;;;;;;;;;14.00;99.90;;;;;;5054699;28;19913;-82
2021/10/28 19:20:33;;;;;;;;;;;14.10;99.90;;;;;;5053820;28;19920;-82
2021/10/28 19:22:59;;;;;;;;;;;14.10;99.90;;;;;;5035152;28;20381;-81
2021/10/28 19:25:24;;;;;;;;;;;14.00;99.90;;;;;;5039184;28;19921;-82
2021/10/28 19:27:53;;;;;;;;;;;14.00;99.90;;;;;;5049134;28;19917;-81
2021/10/28 19:32:45;;;;;;;;;;;14.00;99.90;;;;;;5044717;28;20012;-83
2021/10/28 19:35:10;;;;;;;;;;;13.90;99.90;;;;;;5054814;28;19962;-82
2021/10/28 19:46:08;;;;;;;;;;;14.00;99.90;;;;;;5049552;28;19923;-82
2021/10/28 19:48:16;;;;;;;;;;;13.90;99.90;;;;;;5054913;28;19920;-81
2021/10/28 19:50:42;;;;;;;;;;;13.90;99.90;;;;;;5047972;28;19963;-81
2021/10/28 19:53:08;;;;;;;;;;;13.80;99.90;;;;;;5047836;28;19913;-83
2021/10/28 19:55:34;;;;;;;;;;;13.80;99.90;;;;;;5049172;28;19913;-82
2021/10/28 19:58:00;;;;;;;;;;;13.80;99.90;;;;;;5051344;28;19959;-82
2021/10/28 20:00:39;;;;;;;;;;;13.80;99.90;;;;;;5049509;28;19959;-81
2021/10/28 20:03:26;;;;;;;;;;;13.70;99.90;;;;;;5048569;28;19919;-82
2021/10/28 20:21:25;;;;;;;;;;;13.70;99.90;;;;;;5055226;28;19975;-82
2021/10/28 20:23:51;;;;;;;;;;;13.70;99.90;;;;;;5051149;28;19913;-83
2021/10/28 20:26:17;;;;;;;;;;;13.70;99.90;;;;;;5055316;28;19966;-80
2021/10/28 20:28:44;;;;;;;;;;;13.60;99.90;;;;;;5046508;28;19917;-82
2021/10/28 20:31:10;;;;;;;;;;;13.60;99.90;;;;;;5034958;28;19913;-80
2021/10/28 20:33:42;;;;;;;;;;;13.60;99.90;;;;;;5034259;28;19920;-83
2021/10/28 20:37:05;;;;;;;;;;;13.60;99.90;;;;;;5048355;28;19921;-80
2021/10/28 20:38:58;;;;;;;;;;;13.60;99.90;;;;;;5046271;28;19913;-82
2021/10/28 20:41:24;;;;;;;;;;;13.60;99.90;;;;;;5048753;28;19917;-83
2021/10/28 20:43:50;;;;;;;;;;;13.60;99.90;;;;;;5050944;28;19912;-80
2021/10/28 20:46:21;;;;;;;;;;;13.60;99.90;;;;;;5050116;28;19917;-82
2021/10/28 20:48:47;;;;;;;;;;;13.60;99.90;;;;;;5053609;28;20008;-81
2021/10/28 20:51:13;;;;;;;;;;;13.60;99.90;;;;;;5050835;28;19924;-81
2021/10/28 20:53:39;;;;;;;;;;;13.50;99.90;;;;;;5061246;28;19962;-80
2021/10/28 20:56:04;;;;;;;;;;;13.60;99.90;;;;;;5048886;28;19928;-81
2021/10/28 20:58:30;;;;;;;;;;;13.50;99.90;;;;;;5052764;28;19956;-81
2021/10/28 21:00:55;;;;;;;;;;;13.60;99.90;;;;;;5046747;28;19917;-82
2021/10/28 21:03:21;;;;;;;;;;;13.50;99.90;;;;;;5051630;28;19993;-82
2021/10/28 21:05:47;;;;;;;;;;;13.50;99.90;;;;;;5052059;28;19931;-84
2021/10/28 21:08:13;;;;;;;;;;;13.50;99.90;;;;;;5047922;28;19917;-81
2021/10/28 21:10:39;;;;;;;;;;;13.40;99.90;;;;;;5053925;28;19925;-81
2021/10/28 21:13:04;;;;;;;;;;;13.40;99.90;;;;;;5060647;28;19917;-82
2021/10/28 21:15:30;;;;;;;;;;;13.30;99.90;;;;;;5053893;28;19921;-83
2021/10/28 21:17:56;;;;;;;;;;;13.30;99.90;;;;;;5052428;28;19912;-81
2021/10/28 21:20:25;;;;;;;;;;;13.20;99.90;;;;;;5053471;28;19944;-81
2021/10/28 21:22:51;;;;;;;;;;;13.20;99.90;;;;;;5042410;28;19913;-82
2021/10/28 21:25:16;;;;;;;;;;;13.10;99.90;;;;;;5053301;28;20459;-83
2021/10/28 21:27:42;;;;;;;;;;;13.00;99.90;;;;;;5042724;28;19917;-81
2021/10/28 21:30:09;;;;;;;;;;;13.00;99.90;;;;;;5053903;28;20370;-82
2021/10/28 21:32:36;;;;;;;;;;;13.10;99.90;;;;;;5054705;28;19980;-82
2021/10/28 21:35:03;;;;;;;;;;;13.00;99.90;;;;;;5049161;28;19917;-81
2021/10/28 21:37:28;;;;;;;;;;;13.00;99.90;;;;;;5050989;28;19916;-82
2021/10/28 21:39:55;;;;;;;;;;;13.00;99.90;;;;;;5053048;28;19913;-82
2021/10/28 21:42:22;;;;;;;;;;;13.00;99.90;;;;;;5053844;28;19952;-83
2021/10/28 21:44:48;;;;;;;;;;;13.00;99.90;;;;;;5051482;28;20373;-83
2021/10/28 21:47:13;;;;;;;;;;;13.00;99.90;;;;;;5052564;28;19916;-82
2021/10/28 21:49:39;;;;;;;;;;;12.90;99.90;;;;;;5052027;28;19913;-82
2021/10/28 21:52:21;;;;;;;;;;;12.80;99.90;;;;;;5047419;28;19914;-81
2021/10/28 21:55:06;;;;;;;;;;;12.80;99.90;;;;;;5052830;28;19959;-82
2021/10/28 22:00:26;;;;;;;;;;;12.70;99.90;;;;;;5054844;28;19909;-82
2021/10/28 22:24:43;;;;;;;;;;;12.30;99.90;;;;;;5052735;28;19920;-81
2021/10/28 22:27:08;;;;;;;;;;;12.20;99.90;;;;;;5047464;28;19970;-82
2021/10/28 22:29:34;;;;;;;;;;;12.20;99.90;;;;;;5040240;28;19918;-82
2021/10/28 22:32:01;;;;;;;;;;;12.30;99.90;;;;;;5036518;28;20415;-81
2021/10/28 22:34:26;;;;;;;;;;;12.20;99.90;;;;;;5057238;28;20361;-81
2021/10/28 22:36:55;;;;;;;;;;;12.10;99.90;;;;;;5056149;28;19997;-81
2021/10/28 22:39:36;;;;;;;;;;;12.20;99.90;;;;;;5056365;28;20357;-82
2021/10/28 22:42:02;;;;;;;;;;;12.20;99.90;;;;;;5056245;28;20011;-81
2021/10/28 22:44:28;;;;;;;;;;;12.20;99.90;;;;;;5057260;28;19948;-81
2021/10/28 22:46:53;;;;;;;;;;;12.20;99.90;;;;;;5049355;28;19959;-81
2021/10/28 22:49:19;;;;;;;;;;;12.20;99.90;;;;;;5056276;28;19913;-81
2021/10/28 22:51:45;;;;;;;;;;;12.20;99.90;;;;;;5053811;28;20258;-80
2021/10/28 22:54:11;;;;;;;;;;;12.20;99.90;;;;;;5052337;28;19917;-82
2021/10/28 22:56:37;;;;;;;;;;;12.10;99.90;;;;;;5053611;28;19955;-81
2021/10/28 22:59:04;;;;;;;;;;;12.10;99.90;;;;;;5055476;28;19924;-80
2021/10/28 23:01:40;;;;;;;;;;;12.20;99.90;;;;;;5057125;28;19913;-80
2021/10/28 23:07:29;;;;;;;;;;;12.00;99.90;;;;;;5072174;28;19939;-82
2021/10/28 23:14:47;;;;;;;;;;;12.10;99.90;;;;;;5053106;28;19919;-81
2021/10/28 23:22:41;;;;;;;;;;;12.00;99.90;;;;;;5044495;28;20382;-81
2021/10/28 23:25:07;;;;;;;;;;;12.00;99.90;;;;;;5043893;28;20040;-78
2021/10/28 23:27:33;;;;;;;;;;;11.90;99.90;;;;;;5053028;28;19916;-86
2021/10/28 23:29:58;;;;;;;;;;;11.90;99.90;;;;;;5054059;28;20028;-81
2021/10/28 23:32:24;;;;;;;;;;;11.90;99.90;;;;;;5053426;28;19913;-81
2021/10/28 23:34:49;;;;;;;;;;;11.90;99.90;;;;;;5061571;28;19912;-81
2021/10/28 23:37:15;;;;;;;;;;;11.80;99.90;;;;;;5053794;28;20336;-82
2021/10/28 23:39:40;;;;;;;;;;;11.80;99.90;;;;;;5071550;28;19912;-81
2021/10/28 23:42:06;;;;;;;;;;;11.90;99.90;;;;;;5056731;28;19921;-82
2021/10/28 23:44:32;;;;;;;;;;;11.80;99.90;;;;;;5054331;28;20038;-83
2021/10/28 23:46:58;;;;;;;;;;;11.90;99.90;;;;;;5062209;28;19920;-83
2021/10/28 23:49:23;;;;;;;;;;;11.80;99.90;;;;;;5062109;28;19942;-83